Time;durP1;ratioP1;P1;durP2;ratioP2;P2;SDS_P1;SDS_P2;PMS_P1;PMS_P2;Temp;Humidity;BMP_temperature;BMP_pressure;BME280_temperature;BME280_humidity;BME280_pressure;Samples;Min_cycle;Max_cycle;Signal;HPM_P1;HPM_P2
2023/11/04 00:02:17;;;;;;;1.97;1.50;;;10.20;90.00;;;;;;5056195;28;20497;-61
2023/11/04 00:04:44;;;;;;;0.97;0.90;;;10.20;90.10;;;;;;5056172;28;20485;-60
2023/11/04 00:07:12;;;;;;;1.50;1.17;;;10.20;90.00;;;;;;5056282;28;20461;-60
2023/11/04 00:09:39;;;;;;;1.20;0.80;;;10.20;90.10;;;;;;5056166;28;20454;-60
2023/11/04 00:12:06;;;;;;;3.20;1.60;;;10.20;90.40;;;;;;5055926;28;20473;-60
2023/11/04 00:14:32;;;;;;;5.00;0.90;;;10.30;90.40;;;;;;5056033;28;20951;-60
2023/11/04 00:16:59;;;;;;;1.00;0.70;;;10.30;90.10;;;;;;5055954;28;20481;-60
2023/11/04 00:19:26;;;;;;;0.60;0.60;;;10.30;90.20;;;;;;5055954;28;20450;-60
2023/11/04 00:21:52;;;;;;;2.33;1.00;;;10.30;90.20;;;;;;5056116;28;20469;-60
2023/11/04 00:24:20;;;;;;;2.87;0.87;;;10.30;90.20;;;;;;5055471;28;20947;-60
2023/11/04 00:26:47;;;;;;;1.00;0.90;;;10.20;90.50;;;;;;5055916;28;20446;-61
2023/11/04 00:29:14;;;;;;;2.13;1.03;;;10.20;90.20;;;;;;5055852;28;20442;-60
2023/11/04 00:31:41;;;;;;;2.00;0.90;;;10.20;90.20;;;;;;5055688;28;20484;-60
2023/11/04 00:34:07;;;;;;;0.83;0.60;;;10.20;90.50;;;;;;5055749;28;20445;-60
2023/11/04 00:36:34;;;;;;;0.97;0.90;;;10.30;90.40;;;;;;5055732;28;20481;-60
2023/11/04 00:39:01;;;;;;;1.27;0.70;;;10.30;90.40;;;;;;5055936;28;20445;-60
2023/11/04 00:41:30;;;;;;;1.20;0.67;;;10.30;90.60;;;;;;5055495;28;20446;-60
2023/11/04 00:43:57;;;;;;;1.43;0.77;;;10.30;90.60;;;;;;5055346;28;20446;-60
2023/11/04 00:46:25;;;;;;;1.10;0.70;;;10.30;90.30;;;;;;5055496;28;20475;-60
2023/11/04 00:48:52;;;;;;;1.60;0.50;;;10.30;91.10;;;;;;5055449;28;20520;-60
2023/11/04 00:51:18;;;;;;;1.83;0.70;;;10.30;90.70;;;;;;5055351;28;20442;-60
2023/11/04 00:53:45;;;;;;;0.67;0.60;;;10.30;90.50;;;;;;5055034;28;20795;-60
2023/11/04 00:56:13;;;;;;;0.77;0.63;;;10.30;90.60;;;;;;5055200;28;20844;-60
2023/11/04 00:58:41;;;;;;;1.37;0.70;;;10.30;90.60;;;;;;5055209;28;20445;-60
2023/11/04 01:01:07;;;;;;;1.63;0.70;;;10.20;90.70;;;;;;5054450;28;20445;-60
2023/11/04 01:03:34;;;;;;;2.30;0.87;;;10.20;90.90;;;;;;5054600;28;20493;-60
2023/11/04 01:06:01;;;;;;;1.43;0.70;;;10.10;91.00;;;;;;5054960;28;20496;-60
2023/11/04 01:08:28;;;;;;;1.13;0.93;;;10.10;90.90;;;;;;5053906;28;20441;-60
2023/11/04 01:10:54;;;;;;;1.23;0.80;;;10.10;91.10;;;;;;5054734;28;20468;-60
2023/11/04 01:13:21;;;;;;;0.93;0.60;;;10.10;91.10;;;;;;5054727;28;20576;-60
2023/11/04 01:15:51;;;;;;;3.67;2.20;;;10.00;91.20;;;;;;5054837;28;20477;-60
2023/11/04 01:18:19;;;;;;;4.20;2.53;;;10.00;91.20;;;;;;5054701;28;20438;-60
2023/11/04 01:20:45;;;;;;;3.00;2.47;;;10.10;91.20;;;;;;5054844;28;20449;-60
2023/11/04 01:23:12;;;;;;;0.60;0.60;;;10.00;91.30;;;;;;5054739;28;20464;-60
2023/11/04 01:25:39;;;;;;;0.70;0.50;;;10.00;91.40;;;;;;5054311;28;20935;-60
2023/11/04 01:28:06;;;;;;;0.80;0.60;;;10.10;91.20;;;;;;5054706;28;20453;-60
2023/11/04 01:30:32;;;;;;;0.70;0.70;;;10.10;91.20;;;;;;5054749;28;20445;-61
2023/11/04 01:33:01;;;;;;;1.10;0.60;;;10.10;91.30;;;;;;5054485;28;20480;-61
2023/11/04 01:35:28;;;;;;;0.80;0.60;;;10.00;91.30;;;;;;5054960;28;20457;-60
2023/11/04 01:37:54;;;;;;;0.87;0.70;;;10.00;91.40;;;;;;5054812;28;20955;-60
2023/11/04 01:40:21;;;;;;;0.90;0.50;;;10.10;91.60;;;;;;5054872;28;20464;-60
2023/11/04 01:42:48;;;;;;;1.23;0.70;;;10.10;91.50;;;;;;5054858;28;20570;-60
2023/11/04 01:45:15;;;;;;;2.97;0.83;;;10.00;91.50;;;;;;5054806;28;20442;-60
2023/11/04 01:47:42;;;;;;;1.30;0.73;;;10.10;91.60;;;;;;5054607;28;20934;-60
2023/11/04 01:50:11;;;;;;;2.00;0.60;;;10.10;91.50;;;;;;5055664;28;20449;-60
2023/11/04 01:52:39;;;;;;;1.50;0.53;;;10.10;91.60;;;;;;5054567;28;20473;-61
2023/11/04 01:55:08;;;;;;;0.70;0.70;;;10.10;91.60;;;;;;5054654;28;20472;-60
2023/11/04 01:57:36;;;;;;;0.70;0.60;;;10.10;91.40;;;;;;5054281;28;20489;-60
2023/11/04 02:00:04;;;;;;;0.50;0.50;;;10.10;91.40;;;;;;5054185;28;20458;-60
2023/11/04 02:02:32;;;;;;;1.10;0.50;;;10.10;91.90;;;;;;5054270;28;20465;-60
2023/11/04 02:04:59;;;;;;;1.50;0.73;;;10.10;91.40;;;;;;5054107;28;20446;-60
2023/11/04 02:07:28;;;;;;;1.17;0.70;;;10.10;91.70;;;;;;5054030;28;20461;-60
2023/11/04 02:09:54;;;;;;;1.67;0.70;;;10.00;91.70;;;;;;5053860;28;20457;-60
2023/11/04 02:12:23;;;;;;;0.40;0.40;;;10.00;91.80;;;;;;5053729;28;20473;-60
2023/11/04 02:14:50;;;;;;;0.80;0.47;;;9.90;92.50;;;;;;5053609;28;20774;-60
2023/11/04 02:17:17;;;;;;;0.87;0.43;;;9.90;92.90;;;;;;5053530;28;20991;-60
2023/11/04 02:19:44;;;;;;;0.50;0.50;;;10.00;92.20;;;;;;5053264;28;20923;-60
2023/11/04 02:22:13;;;;;;;2.10;0.60;;;10.00;92.10;;;;;;5053418;28;20986;-60
2023/11/04 02:24:40;;;;;;;1.47;0.50;;;10.00;92.30;;;;;;5053719;28;20445;-60
2023/11/04 02:27:07;;;;;;;1.90;0.57;;;10.00;92.50;;;;;;5053657;28;20449;-61
2023/11/04 02:29:34;;;;;;;1.03;0.90;;;10.00;92.60;;;;;;5054170;28;20460;-60
2023/11/04 02:32:00;;;;;;;1.63;0.60;;;10.00;92.60;;;;;;5053548;28;20882;-60
2023/11/04 02:34:27;;;;;;;0.50;0.40;;;10.00;92.70;;;;;;5053517;28;20449;-60
2023/11/04 02:36:54;;;;;;;1.90;0.60;;;10.00;93.00;;;;;;5054217;28;20477;-60
2023/11/04 02:39:22;;;;;;;1.07;0.70;;;10.00;93.00;;;;;;5053479;28;20449;-60
2023/11/04 02:41:48;;;;;;;1.90;1.17;;;10.00;93.00;;;;;;5053468;28;20465;-60
2023/11/04 02:44:15;;;;;;;0.83;0.60;;;10.00;93.00;;;;;;5053644;28;20450;-60
2023/11/04 02:46:41;;;;;;;1.33;0.60;;;10.00;93.10;;;;;;5053433;28;20456;-60
2023/11/04 02:49:09;;;;;;;0.87;0.60;;;10.10;93.20;;;;;;5053171;28;20499;-60
2023/11/04 02:51:35;;;;;;;3.00;0.63;;;10.10;93.20;;;;;;5053026;28;20501;-60
2023/11/04 02:54:02;;;;;;;3.60;0.70;;;10.00;93.20;;;;;;5053313;28;20449;-60
2023/11/04 02:56:31;;;;;;;0.50;0.43;;;10.10;93.40;;;;;;5052910;28;21025;-60
2023/11/04 02:58:57;;;;;;;1.50;0.83;;;10.10;93.30;;;;;;5053246;28;20445;-60
2023/11/04 03:01:24;;;;;;;1.30;0.77;;;10.20;93.20;;;;;;5053193;28;20444;-60
2023/11/04 03:03:51;;;;;;;1.27;0.70;;;10.30;93.30;;;;;;5053114;28;20521;-60
2023/11/04 03:06:22;;;;;;;1.90;0.60;;;10.30;93.20;;;;;;5053178;28;20446;-60
2023/11/04 03:08:48;;;;;;;1.43;0.40;;;10.40;93.20;;;;;;5053174;28;20448;-60
2023/11/04 03:11:15;;;;;;;1.33;0.70;;;10.40;93.30;;;;;;5052587;28;20829;-61
2023/11/04 03:13:43;;;;;;;2.30;0.60;;;10.50;93.20;;;;;;5053068;28;20449;-60
2023/11/04 03:16:18;;;;;;;1.37;0.70;;;10.50;93.20;;;;;;5053003;28;20523;-60
2023/11/04 03:18:44;;;;;;;2.13;0.90;;;10.60;93.30;;;;;;5053105;28;20448;-60
2023/11/04 03:21:11;;;;;;;0.43;0.33;;;10.60;93.30;;;;;;5052826;28;20452;-60
2023/11/04 03:23:39;;;;;;;1.00;0.60;;;10.70;93.30;;;;;;5052894;28;20469;-60
2023/11/04 03:26:07;;;;;;;1.93;0.70;;;10.60;93.30;;;;;;5053103;28;20471;-60
2023/11/04 03:28:34;;;;;;;2.27;0.60;;;10.70;93.50;;;;;;5052978;28;20446;-60
2023/11/04 03:31:03;;;;;;;0.70;0.40;;;10.70;93.30;;;;;;5052662;28;20441;-60
2023/11/04 03:33:30;;;;;;;5.70;0.53;;;10.70;93.20;;;;;;5056732;28;20461;-60
2023/11/04 03:35:57;;;;;;;4.03;0.90;;;10.70;93.30;;;;;;5056837;28;20445;-60
2023/11/04 03:38:24;;;;;;;1.67;0.60;;;10.80;93.30;;;;;;5056486;28;20485;-60
2023/11/04 03:40:50;;;;;;;2.37;0.67;;;10.80;93.30;;;;;;5056752;28;20441;-60
2023/11/04 03:43:17;;;;;;;1.77;0.70;;;10.90;93.20;;;;;;5056333;28;20462;-60
2023/11/04 03:45:44;;;;;;;6.87;0.80;;;10.80;93.20;;;;;;5056331;28;20958;-60
2023/11/04 03:48:12;;;;;;;1.50;0.60;;;10.90;93.40;;;;;;5056362;28;20441;-60
2023/11/04 03:50:39;;;;;;;1.63;0.73;;;10.90;93.20;;;;;;5056270;28;21030;-60
2023/11/04 03:53:06;;;;;;;1.33;0.70;;;10.90;93.40;;;;;;5056116;28;20842;-60
2023/11/04 03:55:32;;;;;;;2.80;0.80;;;11.00;93.50;;;;;;5056321;28;20464;-60
2023/11/04 03:57:59;;;;;;;7.50;0.93;;;11.00;93.50;;;;;;5056428;28;20517;-60
2023/11/04 04:00:27;;;;;;;2.50;0.90;;;11.00;93.50;;;;;;5056437;28;20449;-60
2023/11/04 04:02:54;;;;;;;1.67;0.50;;;11.00;93.70;;;;;;5056240;28;20531;-61
2023/11/04 04:05:22;;;;;;;4.70;0.90;;;11.00;93.70;;;;;;5056365;28;20453;-60
2023/11/04 04:07:49;;;;;;;2.23;0.80;;;11.00;93.70;;;;;;5056332;28;20441;-60
2023/11/04 04:10:16;;;;;;;3.50;0.60;;;11.00;93.70;;;;;;5056067;28;20446;-60
2023/11/04 04:12:42;;;;;;;1.90;0.60;;;11.00;93.70;;;;;;5056206;28;20501;-60
2023/11/04 04:15:10;;;;;;;1.87;0.53;;;11.00;93.70;;;;;;5055927;28;20454;-60
2023/11/04 04:17:37;;;;;;;2.33;0.77;;;11.10;93.90;;;;;;5056010;28;20477;-60
2023/11/04 04:20:04;;;;;;;1.17;0.70;;;11.00;93.90;;;;;;5056015;28;20530;-60
2023/11/04 04:22:32;;;;;;;1.77;0.67;;;11.00;93.90;;;;;;5055862;28;20470;-60
2023/11/04 04:24:59;;;;;;;2.70;0.63;;;11.10;93.80;;;;;;5055693;28;20850;-60
2023/11/04 04:27:26;;;;;;;2.00;0.60;;;11.10;93.90;;;;;;5055915;28;20786;-60
2023/11/04 04:29:52;;;;;;;2.33;0.90;;;11.10;93.90;;;;;;5055905;28;20790;-60
2023/11/04 04:32:19;;;;;;;1.43;0.70;;;11.10;94.00;;;;;;5055762;28;20882;-60
2023/11/04 04:34:46;;;;;;;1.67;0.80;;;11.10;94.00;;;;;;5055739;28;20452;-60
2023/11/04 04:37:13;;;;;;;1.33;0.83;;;11.10;93.70;;;;;;5055746;28;20485;-60
2023/11/04 04:39:41;;;;;;;1.30;0.50;;;11.10;93.60;;;;;;5055769;28;20859;-60
2023/11/04 04:42:08;;;;;;;1.17;0.63;;;11.10;93.60;;;;;;5055584;28;20461;-61
2023/11/04 04:44:35;;;;;;;1.27;0.63;;;11.00;93.60;;;;;;5056039;28;20444;-61
2023/11/04 04:47:01;;;;;;;0.70;0.50;;;11.00;93.60;;;;;;5055910;28;20450;-60
2023/11/04 04:49:28;;;;;;;1.13;0.70;;;10.90;93.70;;;;;;5055492;28;20441;-60
2023/11/04 04:51:55;;;;;;;2.00;0.63;;;10.90;93.90;;;;;;5055702;28;20515;-60
2023/11/04 04:54:22;;;;;;;1.43;0.70;;;10.80;93.90;;;;;;5055507;28;20442;-60
2023/11/04 04:56:50;;;;;;;1.33;0.80;;;10.70;94.10;;;;;;5055461;28;20480;-60
2023/11/04 04:59:16;;;;;;;0.90;0.90;;;10.70;94.30;;;;;;5055513;28;20437;-60
2023/11/04 05:01:43;;;;;;;0.90;0.70;;;10.60;94.40;;;;;;5055360;28;20481;-60
2023/11/04 05:04:11;;;;;;;1.20;1.00;;;10.60;94.60;;;;;;5055060;28;20952;-60
2023/11/04 05:06:37;;;;;;;0.63;0.63;;;10.60;94.80;;;;;;5055699;28;20452;-60
2023/11/04 05:09:04;;;;;;;2.00;1.07;;;10.60;94.90;;;;;;5055369;28;20442;-61
2023/11/04 05:11:31;;;;;;;1.00;0.60;;;10.60;94.90;;;;;;5054846;28;20515;-60
2023/11/04 05:13:59;;;;;;;1.63;0.83;;;10.60;94.90;;;;;;5054905;28;20810;-60
2023/11/04 05:16:26;;;;;;;2.03;0.70;;;10.60;94.90;;;;;;5055010;28;20454;-60
2023/11/04 05:18:53;;;;;;;0.73;0.60;;;10.60;95.00;;;;;;5055109;28;20489;-60
2023/11/04 05:21:19;;;;;;;1.70;0.70;;;10.60;95.00;;;;;;5055162;28;20453;-60
2023/11/04 05:23:46;;;;;;;1.40;0.80;;;10.60;95.10;;;;;;5055034;28;21035;-61
2023/11/04 05:26:14;;;;;;;1.03;0.50;;;10.50;95.40;;;;;;5054860;28;20940;-60
2023/11/04 05:28:40;;;;;;;1.33;0.67;;;10.40;95.60;;;;;;5055082;28;20473;-60
2023/11/04 05:31:08;;;;;;;0.60;0.40;;;10.40;95.80;;;;;;5054826;28;20442;-60
2023/11/04 05:33:35;;;;;;;0.60;0.50;;;10.40;95.90;;;;;;5054808;28;20469;-60
2023/11/04 05:36:02;;;;;;;1.33;0.90;;;10.40;96.00;;;;;;5054586;28;20449;-60
2023/11/04 05:38:31;;;;;;;0.60;0.60;;;10.40;96.20;;;;;;5054872;28;20477;-60
2023/11/04 05:40:58;;;;;;;1.70;0.60;;;10.40;96.20;;;;;;5054726;28;20452;-60
2023/11/04 05:43:25;;;;;;;1.17;0.60;;;10.30;96.20;;;;;;5054445;28;20458;-60
2023/11/04 05:45:52;;;;;;;0.67;0.60;;;10.40;96.40;;;;;;5054615;28;20986;-60
2023/11/04 05:48:20;;;;;;;0.63;0.40;;;10.40;96.40;;;;;;5054443;28;20442;-60
2023/11/04 05:50:47;;;;;;;0.70;0.67;;;10.40;96.30;;;;;;5054223;28;20941;-60
2023/11/04 05:53:14;;;;;;;1.60;0.60;;;10.40;96.20;;;;;;5054433;28;20985;-60
2023/11/04 05:55:41;;;;;;;1.07;0.60;;;10.30;96.20;;;;;;5053687;28;20457;-60
2023/11/04 05:58:08;;;;;;;1.10;0.70;;;10.30;96.30;;;;;;5054254;28;20481;-60
2023/11/04 06:00:36;;;;;;;0.50;0.50;;;10.30;96.40;;;;;;5053898;28;20446;-60
2023/11/04 06:03:03;;;;;;;0.80;0.50;;;10.40;96.30;;;;;;5054161;28;20469;-60
2023/11/04 06:05:32;;;;;;;2.20;0.60;;;10.30;96.30;;;;;;5054062;28;20446;-59
2023/11/04 06:07:59;;;;;;;1.03;0.60;;;10.20;96.60;;;;;;5054119;28;20441;-60
2023/11/04 06:10:25;;;;;;;1.87;0.63;;;10.20;96.70;;;;;;5053692;28;20454;-60
2023/11/04 06:12:53;;;;;;;1.47;0.60;;;10.30;96.80;;;;;;5053877;28;20484;-60
2023/11/04 06:15:20;;;;;;;0.53;0.50;;;10.30;96.70;;;;;;5053874;28;20469;-60
2023/11/04 06:17:47;;;;;;;0.43;0.40;;;10.30;96.50;;;;;;5053774;28;20524;-60
2023/11/04 06:20:14;;;;;;;0.60;0.40;;;10.20;96.60;;;;;;5053795;28;20472;-60
2023/11/04 06:22:42;;;;;;;1.97;0.50;;;10.30;96.60;;;;;;5053679;28;20472;-60
2023/11/04 06:25:09;;;;;;;0.60;0.50;;;10.30;96.70;;;;;;5053942;28;20445;-60
2023/11/04 06:27:36;;;;;;;0.73;0.40;;;10.30;96.60;;;;;;5053397;28;20931;-60
2023/11/04 06:30:02;;;;;;;0.57;0.57;;;10.30;96.60;;;;;;5053703;28;20822;-60
2023/11/04 06:32:29;;;;;;;1.17;0.50;;;10.30;96.50;;;;;;5053849;28;20458;-59
2023/11/04 06:34:57;;;;;;;1.00;0.70;;;10.30;96.40;;;;;;5054355;28;20461;-59
2023/11/04 06:37:24;;;;;;;0.83;0.60;;;10.30;96.50;;;;;;5053884;28;20568;-59
2023/11/04 06:39:52;;;;;;;0.90;0.60;;;10.30;96.60;;;;;;5053423;28;20453;-60
2023/11/04 06:42:20;;;;;;;0.60;0.50;;;10.20;96.80;;;;;;5053407;28;20501;-60
2023/11/04 06:44:47;;;;;;;0.80;0.50;;;10.20;96.80;;;;;;5053375;28;20454;-60
2023/11/04 06:47:14;;;;;;;0.90;0.80;;;10.20;96.90;;;;;;5053977;28;20445;-59
2023/11/04 06:49:40;;;;;;;0.70;0.60;;;10.20;96.90;;;;;;5053074;28;20940;-60
2023/11/04 06:52:07;;;;;;;3.03;0.60;;;10.20;96.90;;;;;;5052948;28;21002;-60
2023/11/04 06:54:34;;;;;;;0.50;0.50;;;10.20;97.20;;;;;;5053300;28;20503;-60
2023/11/04 06:57:02;;;;;;;0.63;0.40;;;10.20;97.20;;;;;;5053151;28;20875;-60
2023/11/04 06:59:29;;;;;;;0.53;0.50;;;10.20;97.20;;;;;;5052822;28;21008;-60
2023/11/04 07:01:55;;;;;;;0.70;0.57;;;10.20;97.30;;;;;;5053193;28;20476;-60
2023/11/04 07:04:22;;;;;;;0.40;0.30;;;10.20;97.30;;;;;;5053139;28;20457;-60
2023/11/04 07:06:51;;;;;;;1.37;0.43;;;10.30;97.40;;;;;;5054332;28;20441;-60
2023/11/04 07:09:18;;;;;;;1.03;0.70;;;10.30;97.30;;;;;;5057536;28;20437;-60
2023/11/04 07:11:45;;;;;;;0.93;0.70;;;10.30;97.50;;;;;;5057113;28;20485;-60
2023/11/04 07:14:16;;;;;;;1.90;0.93;;;10.30;97.50;;;;;;5057312;28;20861;-60
2023/11/04 07:16:44;;;;;;;0.93;0.80;;;10.40;97.50;;;;;;5056854;28;20932;-60
2023/11/04 07:19:11;;;;;;;1.93;0.93;;;10.40;97.50;;;;;;5056780;28;21021;-60
2023/11/04 07:21:38;;;;;;;0.57;0.50;;;10.30;97.50;;;;;;5057090;28;20534;-60
2023/11/04 07:24:06;;;;;;;0.73;0.70;;;10.40;97.70;;;;;;5056806;28;20861;-61
2023/11/04 07:26:33;;;;;;;1.50;0.80;;;10.40;97.50;;;;;;5057016;28;20456;-61
2023/11/04 07:29:00;;;;;;;2.00;0.80;;;10.50;97.50;;;;;;5056797;28;20962;-60
2023/11/04 07:31:29;;;;;;;1.17;0.70;;;10.60;97.40;;;;;;5056943;28;20538;-60
2023/11/04 07:33:57;;;;;;;1.10;0.60;;;10.60;97.20;;;;;;5056978;28;20450;-61
2023/11/04 07:36:24;;;;;;;1.07;0.60;;;10.70;97.10;;;;;;5056398;28;20548;-61
2023/11/04 07:38:52;;;;;;;0.60;0.53;;;10.70;97.20;;;;;;5056734;28;20963;-61
2023/11/04 07:41:18;;;;;;;0.60;0.60;;;10.70;97.30;;;;;;5056690;28;20511;-61
2023/11/04 07:43:45;;;;;;;1.17;0.67;;;10.70;97.20;;;;;;5056681;28;20449;-61
2023/11/04 07:46:12;;;;;;;1.70;0.70;;;10.80;97.10;;;;;;5056876;28;20449;-61
2023/11/04 07:48:40;;;;;;;0.77;0.77;;;10.90;96.70;;;;;;5056621;28;20441;-61
2023/11/04 07:51:08;;;;;;;0.77;0.73;;;10.90;96.70;;;;;;5056563;28;20446;-61
2023/11/04 07:53:35;;;;;;;1.47;0.87;;;10.90;96.50;;;;;;5056623;28;20494;-61
2023/11/04 07:56:02;;;;;;;1.03;0.80;;;10.80;96.80;;;;;;5056233;28;20947;-62
2023/11/04 07:58:29;;;;;;;1.83;0.60;;;10.90;96.70;;;;;;5056476;28;20481;-61
2023/11/04 08:00:56;;;;;;;1.73;0.50;;;10.90;96.60;;;;;;5056200;28;20441;-61
2023/11/04 08:03:23;;;;;;;0.83;0.50;;;11.00;96.80;;;;;;5056334;28;20480;-61
2023/11/04 08:05:52;;;;;;;1.50;0.50;;;11.00;96.60;;;;;;5056132;28;20484;-61
2023/11/04 08:08:19;;;;;;;0.50;0.50;;;11.10;96.50;;;;;;5056237;28;20445;-61
2023/11/04 08:10:47;;;;;;;0.60;0.60;;;11.20;96.20;;;;;;5056142;28;20461;-61
2023/11/04 08:13:14;;;;;;;0.77;0.40;;;11.10;96.20;;;;;;5055861;28;20848;-61
2023/11/04 08:15:41;;;;;;;0.93;0.47;;;11.20;96.00;;;;;;5056081;28;20464;-61
2023/11/04 08:18:08;;;;;;;3.47;0.80;;;11.30;95.90;;;;;;5055208;28;21025;-61
2023/11/04 08:20:36;;;;;;;0.80;0.53;;;11.30;95.90;;;;;;5056049;28;20447;-61
2023/11/04 08:23:06;;;;;;;1.13;0.80;;;11.40;95.80;;;;;;5055708;28;20971;-61
2023/11/04 08:25:33;;;;;;;1.77;0.60;;;11.40;96.20;;;;;;5055977;28;20442;-61
2023/11/04 08:28:00;;;;;;;1.43;0.67;;;11.40;95.80;;;;;;5055636;28;20946;-61
2023/11/04 08:30:27;;;;;;;2.57;0.40;;;11.40;95.60;;;;;;5055834;28;20457;-61
2023/11/04 08:32:55;;;;;;;0.57;0.40;;;11.40;95.50;;;;;;5055508;28;21006;-61
2023/11/04 08:35:22;;;;;;;1.80;0.50;;;11.50;95.40;;;;;;5055810;28;20449;-61
2023/11/04 08:37:49;;;;;;;2.10;0.60;;;11.60;95.20;;;;;;5055583;28;20453;-61
2023/11/04 08:40:17;;;;;;;1.00;0.80;;;11.70;95.20;;;;;;5055710;28;20473;-61
2023/11/04 08:42:43;;;;;;;0.97;0.60;;;11.70;95.20;;;;;;5055565;28;20477;-61
2023/11/04 08:45:13;;;;;;;1.27;0.50;;;11.70;94.90;;;;;;5055637;28;20438;-61
2023/11/04 08:47:40;;;;;;;0.60;0.40;;;11.70;94.70;;;;;;5055537;28;20457;-61
2023/11/04 08:50:08;;;;;;;0.80;0.50;;;11.80;94.70;;;;;;5055169;28;20451;-61
2023/11/04 08:52:34;;;;;;;0.80;0.70;;;11.80;94.60;;;;;;5055363;28;20519;-61
2023/11/04 08:55:04;;;;;;;3.47;0.60;;;11.80;94.50;;;;;;5055391;28;20472;-61
2023/11/04 08:57:32;;;;;;;3.40;0.90;;;11.80;94.60;;;;;;5055253;28;20442;-61
2023/11/04 08:59:59;;;;;;;1.27;0.77;;;11.80;94.60;;;;;;5055226;28;20489;-61
2023/11/04 09:02:26;;;;;;;4.73;0.80;;;11.80;94.70;;;;;;5055172;28;20539;-61
2023/11/04 09:04:53;;;;;;;1.60;0.70;;;11.80;94.50;;;;;;5055270;28;20515;-61
2023/11/04 09:07:20;;;;;;;1.97;0.73;;;11.90;94.80;;;;;;5055164;28;20445;-61
2023/11/04 09:09:47;;;;;;;1.20;0.80;;;12.00;94.80;;;;;;5054869;28;20951;-61
2023/11/04 09:12:13;;;;;;;0.50;0.40;;;12.10;94.80;;;;;;5054823;28;20853;-61
2023/11/04 09:14:41;;;;;;;1.00;0.50;;;12.10;94.10;;;;;;5055046;28;20453;-61
2023/11/04 09:17:08;;;;;;;1.57;0.70;;;12.10;94.00;;;;;;5054851;28;20503;-61
2023/11/04 09:19:35;;;;;;;0.80;0.50;;;12.10;93.70;;;;;;5054900;28;20939;-61
2023/11/04 09:22:01;;;;;;;2.20;0.60;;;12.20;93.60;;;;;;5054853;28;20837;-61
2023/11/04 09:24:28;;;;;;;0.93;0.60;;;12.30;93.50;;;;;;5054906;28;20446;-61
2023/11/04 09:26:56;;;;;;;1.40;0.63;;;12.50;93.10;;;;;;5054789;28;20445;-61
2023/11/04 09:29:23;;;;;;;1.80;0.50;;;12.50;92.70;;;;;;5053919;28;20449;-61
2023/11/04 09:31:51;;;;;;;2.00;0.77;;;12.50;92.40;;;;;;5054642;28;20472;-61
2023/11/04 09:34:18;;;;;;;0.70;0.53;;;12.40;92.20;;;;;;5054690;28;20495;-61
2023/11/04 09:36:45;;;;;;;1.60;0.57;;;12.40;92.40;;;;;;5054476;28;20504;-61
2023/11/04 09:39:12;;;;;;;0.63;0.50;;;12.60;92.60;;;;;;5054477;28;20480;-61
2023/11/04 09:41:39;;;;;;;1.97;0.60;;;12.70;92.40;;;;;;5054800;28;20473;-61
2023/11/04 09:44:06;;;;;;;1.97;0.73;;;12.80;92.00;;;;;;5054494;28;20453;-61
2023/11/04 09:46:33;;;;;;;1.13;0.77;;;12.90;91.50;;;;;;5054124;28;20928;-61
2023/11/04 09:49:01;;;;;;;0.57;0.47;;;13.20;91.50;;;;;;5054351;28;20444;-61
2023/11/04 09:51:29;;;;;;;2.77;0.70;;;13.30;91.00;;;;;;5054181;28;20959;-61
2023/11/04 09:53:59;;;;;;;0.93;0.70;;;13.40;90.60;;;;;;5054316;28;20460;-61
2023/11/04 09:56:26;;;;;;;1.43;0.50;;;13.40;90.50;;;;;;5054219;28;20446;-61
2023/11/04 09:58:53;;;;;;;1.20;0.60;;;13.60;90.00;;;;;;5053698;28;21010;-61
2023/11/04 10:01:20;;;;;;;1.13;0.63;;;13.60;90.00;;;;;;5054125;28;20474;-61
2023/11/04 10:03:47;;;;;;;0.87;0.63;;;13.60;89.00;;;;;;5054370;28;20433;-61
2023/11/04 10:06:16;;;;;;;1.57;0.43;;;13.60;89.30;;;;;;5053916;28;20901;-61
2023/11/04 10:08:43;;;;;;;1.47;0.60;;;13.50;89.10;;;;;;5054078;28;20464;-61
2023/11/04 10:11:10;;;;;;;1.57;0.53;;;13.40;89.30;;;;;;5053804;28;20464;-61
2023/11/04 10:13:36;;;;;;;0.87;0.50;;;13.30;89.40;;;;;;5054011;28;20472;-61
2023/11/04 10:16:04;;;;;;;0.93;0.60;;;13.20;89.30;;;;;;5053969;28;20457;-61
2023/11/04 10:18:32;;;;;;;2.83;1.07;;;13.20;89.60;;;;;;5053337;28;21019;-61
2023/11/04 10:21:00;;;;;;;0.90;0.53;;;13.10;89.90;;;;;;5053742;28;20434;-61
2023/11/04 10:23:29;;;;;;;2.20;0.60;;;13.10;90.00;;;;;;5053636;28;20462;-61
2023/11/04 10:25:59;;;;;;;5.10;1.00;;;13.00;88.60;;;;;;5053375;28;20476;-61
2023/11/04 10:28:26;;;;;;;3.43;1.00;;;13.10;89.10;;;;;;5053670;28;20840;-61
2023/11/04 10:31:02;;;;;;;1.90;0.70;;;13.00;89.30;;;;;;5053622;28;20448;-61
2023/11/04 10:33:31;;;;;;;1.50;0.70;;;13.00;88.60;;;;;;5053622;28;20457;-61
2023/11/04 10:35:59;;;;;;;1.67;0.90;;;12.80;87.60;;;;;;5053817;28;20446;-61
2023/11/04 10:38:28;;;;;;;2.70;0.80;;;12.70;88.50;;;;;;5053107;28;20460;-61
2023/11/04 10:40:55;;;;;;;1.33;0.90;;;12.60;89.00;;;;;;5053328;28;20466;-61
2023/11/04 10:43:26;;;;;;;2.70;0.90;;;12.60;89.80;;;;;;5053060;28;20841;-61
2023/11/04 10:46:00;;;;;;;5.53;1.60;;;12.70;89.10;;;;;;5053347;28;20449;-61
2023/11/04 10:48:33;;;;;;;3.33;1.17;;;12.70;89.90;;;;;;5053461;28;20425;-64
2023/11/04 10:51:08;;;;;;;3.50;0.90;;;12.70;90.20;;;;;;5053089;28;20433;-60
2023/11/04 10:53:44;;;;;;;2.67;1.10;;;12.70;90.30;;;;;;5052984;28;20995;-61
2023/11/04 10:56:19;;;;;;;3.43;0.80;;;12.70;90.20;;;;;;5052977;28;20923;-60
2023/11/04 10:58:54;;;;;;;3.33;1.00;;;12.60;90.20;;;;;;5053132;28;20472;-61
2023/11/04 11:01:24;;;;;;;3.43;0.83;;;12.60;90.50;;;;;;5053375;28;20436;-61
2023/11/04 11:03:53;;;;;;;2.80;1.20;;;12.60;90.40;;;;;;5053418;28;20452;-60
2023/11/04 11:06:21;;;;;;;6.60;1.00;;;12.40;90.90;;;;;;5052942;28;20460;-59
2023/11/04 11:08:50;;;;;;;3.70;1.27;;;12.40;92.00;;;;;;5053224;28;20484;-58
2023/11/04 11:11:21;;;;;;;2.53;1.00;;;12.40;92.40;;;;;;5052939;28;20500;-58
2023/11/04 11:13:51;;;;;;;4.63;1.00;;;12.20;93.10;;;;;;5052884;28;20444;-58
2023/11/04 11:16:19;;;;;;;2.47;1.70;;;12.10;93.80;;;;;;5052873;28;20837;-58
2023/11/04 11:18:45;;;;;;;5.60;1.27;;;11.90;95.20;;;;;;5052812;28;20452;-58
2023/11/04 11:21:14;;;;;;;3.70;1.30;;;11.80;96.10;;;;;;5053149;28;20441;-58
2023/11/04 11:23:42;;;;;;;4.40;1.30;;;11.70;96.50;;;;;;5052730;28;20991;-58
2023/11/04 11:26:13;;;;;;;4.13;1.20;;;11.70;97.10;;;;;;5052736;28;20796;-58
2023/11/04 11:28:41;;;;;;;2.43;1.27;;;11.60;97.20;;;;;;5053089;28;20462;-58
2023/11/04 11:31:11;;;;;;;4.20;1.23;;;11.70;97.70;;;;;;5052649;28;20943;-58
2023/11/04 11:33:40;;;;;;;3.77;1.40;;;11.70;97.80;;;;;;5052936;28;20553;-58
2023/11/04 11:36:10;;;;;;;3.80;1.50;;;11.70;97.90;;;;;;5052627;28;20823;-58
2023/11/04 11:38:40;;;;;;;6.13;0.90;;;11.70;98.10;;;;;;5052659;28;20442;-58
2023/11/04 11:41:08;;;;;;;3.90;1.13;;;11.80;98.10;;;;;;5053229;28;20540;-58
2023/11/04 11:43:37;;;;;;;3.17;1.33;;;11.90;98.20;;;;;;5052784;28;20841;-60
2023/11/04 11:46:04;;;;;;;3.10;1.60;;;11.80;98.10;;;;;;5052873;28;20448;-59
2023/11/04 11:48:36;;;;;;;2.70;0.97;;;11.80;98.00;;;;;;5052827;28;20445;-59
2023/11/04 11:51:03;;;;;;;2.60;1.10;;;11.80;98.50;;;;;;5052841;28;20449;-58
2023/11/04 11:53:32;;;;;;;2.70;0.83;;;11.90;98.50;;;;;;5054860;28;20572;-58
2023/11/04 11:56:00;;;;;;;3.50;1.33;;;11.90;98.30;;;;;;5057012;28;20536;-58
2023/11/04 11:58:28;;;;;;;3.00;1.17;;;11.90;98.70;;;;;;5056346;28;20448;-58
2023/11/04 12:00:57;;;;;;;3.37;1.20;;;11.90;98.90;;;;;;5056401;28;20484;-59
2023/11/04 12:03:24;;;;;;;3.03;1.80;;;12.00;98.90;;;;;;5056100;28;20983;-59
2023/11/04 12:05:52;;;;;;;8.83;2.40;;;11.90;99.10;;;;;;5056035;28;20962;-59
2023/11/04 12:08:19;;;;;;;9.70;3.40;;;11.90;99.20;;;;;;5056027;28;20444;-59
2023/11/04 12:10:46;;;;;;;11.60;6.90;;;12.00;99.30;;;;;;5055844;28;20960;-59
2023/11/04 12:13:14;;;;;;;3.10;1.80;;;12.00;99.40;;;;;;5056205;28;20465;-59
2023/11/04 12:15:42;;;;;;;2.63;1.43;;;12.10;99.50;;;;;;5056196;28;20473;-59
2023/11/04 12:18:11;;;;;;;2.10;1.03;;;12.10;99.40;;;;;;5055968;28;20446;-60
2023/11/04 12:20:40;;;;;;;3.50;2.00;;;12.20;99.50;;;;;;5055677;28;20481;-60
2023/11/04 12:23:07;;;;;;;5.40;2.43;;;12.20;99.30;;;;;;5055945;28;20477;-60
2023/11/04 12:25:35;;;;;;;11.40;5.40;;;12.30;99.30;;;;;;5056078;28;20468;-60
2023/11/04 12:28:02;;;;;;;5.63;2.90;;;12.30;99.30;;;;;;5055948;28;20457;-60
2023/11/04 12:30:29;;;;;;;5.50;2.40;;;12.40;99.20;;;;;;5055967;28;20437;-60
2023/11/04 12:32:58;;;;;;;4.37;2.77;;;12.40;98.90;;;;;;5055951;28;20477;-60
2023/11/04 12:35:26;;;;;;;10.13;3.70;;;12.40;98.90;;;;;;5055599;28;20449;-60
2023/11/04 12:37:53;;;;;;;3.70;2.00;;;12.40;98.70;;;;;;5055701;28;20873;-59
2023/11/04 12:40:22;;;;;;;3.87;2.27;;;12.40;98.60;;;;;;5055585;28;20478;-59
2023/11/04 12:42:49;;;;;;;4.60;2.00;;;12.50;98.70;;;;;;5055739;28;20462;-59
2023/11/04 12:45:16;;;;;;;4.73;1.80;;;12.40;98.60;;;;;;5055633;28;20499;-59
2023/11/04 12:47:44;;;;;;;3.13;1.57;;;12.40;98.60;;;;;;5055563;28;20449;-59
2023/11/04 12:50:13;;;;;;;3.73;1.67;;;12.40;98.50;;;;;;5055563;28;20450;-59